AEA6103 LEBL-LEPA
Flight info
| Callsign | AEA6103 |
|---|---|
| Flight time | 0h 30m |
| Altitude | 19000 |
| Route | LARPA N859 TOLSO |
| Aircraft | B38M/M-SDE1FGHILORVWXY/HB1 |
Departure
| Time | 2026-05-07 00:22 |
|---|---|
| Airport | Josep Tarradellas Barcelona-El Prat Airport (LEBL) |
Arrival
| Time | 2026-05-07 00:52 |
|---|---|
| Airport | Palma de Mallorca Airport (LEPA) |
| Time | Latitude | Longitude | Altitude | Speed | Heading |
|---|---|---|---|---|---|
| 2026-05-07 00:14 | 41.28640 | 2.07521 | 18 ft | 0 kts | 8° |
| 2026-05-07 00:16 | 41.28638 | 2.07521 | 18 ft | 2 kts | 8° |
| 2026-05-07 00:16 | 41.28614 | 2.07517 | 17 ft | 4 kts | 0° |
| 2026-05-07 00:16 | 41.28587 | 2.07519 | 17 ft | 4 kts | 351° |
| 2026-05-07 00:16 | 41.28563 | 2.07526 | 19 ft | 1 kts | 343° |
| 2026-05-07 00:17 | 41.28558 | 2.07528 | 18 ft | 0 kts | 343° |
| 2026-05-07 00:19 | 41.28559 | 2.07527 | 18 ft | 1 kts | 342° |
| 2026-05-07 00:19 | 41.28563 | 2.07501 | 18 ft | 6 kts | 242° |
| 2026-05-07 00:19 | 41.28510 | 2.07428 | 16 ft | 15 kts | 233° |
| 2026-05-07 00:20 | 41.28434 | 2.07422 | 18 ft | 11 kts | 150° |
| 2026-05-07 00:20 | 41.28423 | 2.07516 | 18 ft | 13 kts | 74° |
| 2026-05-07 00:20 | 41.28430 | 2.07585 | 17 ft | 6 kts | 96° |
| 2026-05-07 00:20 | 41.28424 | 2.07664 | 17 ft | 12 kts | 95° |
| 2026-05-07 00:21 | 41.28413 | 2.07802 | 19 ft | 18 kts | 96° |
| 2026-05-07 00:21 | 41.28427 | 2.08012 | 21 ft | 38 kts | 65° |
| 2026-05-07 00:21 | 41.28658 | 2.08682 | 25 ft | 119 kts | 65° |
| 2026-05-07 00:21 | 41.29101 | 2.09956 | 176 ft | 169 kts | 64° |
| 2026-05-07 00:22 | 41.29533 | 2.11394 | 1153 ft | 167 kts | 72° |
| 2026-05-07 00:22 | 41.29807 | 2.12909 | 2043 ft | 175 kts | 80° |
| 2026-05-07 00:22 | 41.29930 | 2.14611 | 2670 ft | 196 kts | 90° |
| 2026-05-07 00:22 | 41.29762 | 2.16524 | 3254 ft | 222 kts | 102° |
| 2026-05-07 00:23 | 41.29452 | 2.18465 | 4438 ft | 213 kts | 103° |
| 2026-05-07 00:23 | 41.29145 | 2.20427 | 5385 ft | 222 kts | 102° |
| 2026-05-07 00:23 | 41.28831 | 2.22461 | 6373 ft | 225 kts | 103° |
| 2026-05-07 00:23 | 41.28518 | 2.24512 | 7309 ft | 229 kts | 102° |
| 2026-05-07 00:24 | 41.28198 | 2.26619 | 8182 ft | 235 kts | 102° |
| 2026-05-07 00:24 | 41.27872 | 2.28765 | 9102 ft | 239 kts | 102° |
| 2026-05-07 00:24 | 41.27494 | 2.30946 | 9912 ft | 249 kts | 110° |
| 2026-05-07 00:24 | 41.26751 | 2.33116 | 10433 ft | 267 kts | 117° |
| 2026-05-07 00:25 | 41.25902 | 2.35417 | 10949 ft | 288 kts | 117° |
| 2026-05-07 00:25 | 41.24996 | 2.37892 | 11436 ft | 308 kts | 116° |
| 2026-05-07 00:25 | 41.24027 | 2.40548 | 11894 ft | 329 kts | 116° |
| 2026-05-07 00:25 | 41.23001 | 2.43364 | 12351 ft | 348 kts | 116° |
| 2026-05-07 00:26 | 41.21927 | 2.46314 | 12939 ft | 361 kts | 116° |
| 2026-05-07 00:26 | 41.20828 | 2.49328 | 13792 ft | 364 kts | 116° |
| 2026-05-07 00:26 | 41.19715 | 2.52375 | 14522 ft | 369 kts | 117° |
| 2026-05-07 00:26 | 41.18587 | 2.55462 | 15233 ft | 374 kts | 117° |
| 2026-05-07 00:27 | 41.17447 | 2.58581 | 15943 ft | 378 kts | 117° |
| 2026-05-07 00:27 | 41.16187 | 2.61659 | 16599 ft | 382 kts | 128° |
| 2026-05-07 00:27 | 41.14323 | 2.64147 | 17277 ft | 381 kts | 147° |
| 2026-05-07 00:27 | 41.11959 | 2.65712 | 17898 ft | 381 kts | 166° |
| 2026-05-07 00:28 | 41.09388 | 2.66243 | 18485 ft | 381 kts | 182° |
| 2026-05-07 00:28 | 41.06734 | 2.66131 | 18655 ft | 382 kts | 186° |
| 2026-05-07 00:28 | 41.04082 | 2.65923 | 18804 ft | 381 kts | 187° |
| 2026-05-07 00:28 | 41.01430 | 2.65679 | 18938 ft | 385 kts | 187° |
| 2026-05-07 00:29 | 40.98709 | 2.65409 | 18947 ft | 401 kts | 187° |
| 2026-05-07 00:29 | 40.95913 | 2.64939 | 18955 ft | 406 kts | 198° |
| 2026-05-07 00:30 | 40.88661 | 2.59291 | 18991 ft | 405 kts | 217° |
| 2026-05-07 00:30 | 40.86353 | 2.57151 | 18988 ft | 405 kts | 217° |
| 2026-05-07 00:30 | 40.84052 | 2.54996 | 18986 ft | 405 kts | 217° |
| 2026-05-07 00:30 | 40.81752 | 2.52830 | 18987 ft | 405 kts | 217° |
| 2026-05-07 00:31 | 40.79461 | 2.50669 | 18986 ft | 405 kts | 217° |
| 2026-05-07 00:31 | 40.77162 | 2.48501 | 18987 ft | 406 kts | 218° |
| 2026-05-07 00:31 | 40.74864 | 2.46335 | 18982 ft | 406 kts | 217° |
| 2026-05-07 00:31 | 40.72567 | 2.44172 | 18986 ft | 406 kts | 217° |
| 2026-05-07 00:32 | 40.70273 | 2.42013 | 18983 ft | 406 kts | 217° |
| 2026-05-07 00:32 | 40.67973 | 2.39851 | 18983 ft | 406 kts | 217° |
| 2026-05-07 00:32 | 40.65642 | 2.37750 | 18975 ft | 407 kts | 211° |
| 2026-05-07 00:32 | 40.62996 | 2.36415 | 18973 ft | 412 kts | 194° |
| 2026-05-07 00:33 | 40.60116 | 2.36158 | 18979 ft | 418 kts | 178° |
| 2026-05-07 00:33 | 40.57248 | 2.36877 | 18988 ft | 422 kts | 169° |
| 2026-05-07 00:33 | 40.54399 | 2.37811 | 18983 ft | 423 kts | 169° |
| 2026-05-07 00:33 | 40.51548 | 2.38772 | 18981 ft | 423 kts | 168° |
| 2026-05-07 00:34 | 40.48761 | 2.39729 | 18954 ft | 412 kts | 168° |
| 2026-05-07 00:34 | 40.46021 | 2.40679 | 18560 ft | 405 kts | 168° |
| 2026-05-07 00:34 | 40.43305 | 2.41623 | 18071 ft | 401 kts | 168° |
| 2026-05-07 00:34 | 40.40622 | 2.42556 | 17528 ft | 397 kts | 168° |
| 2026-05-07 00:35 | 40.37958 | 2.43482 | 17013 ft | 394 kts | 168° |
| 2026-05-07 00:35 | 40.35323 | 2.44397 | 16513 ft | 390 kts | 167° |
| 2026-05-07 00:35 | 40.32712 | 2.45303 | 16020 ft | 386 kts | 167° |
| 2026-05-07 00:35 | 40.30119 | 2.46203 | 15533 ft | 383 kts | 167° |
| 2026-05-07 00:36 | 40.27549 | 2.47093 | 15058 ft | 380 kts | 167° |
| 2026-05-07 00:36 | 40.25000 | 2.47975 | 14593 ft | 377 kts | 167° |
| 2026-05-07 00:36 | 40.22487 | 2.48918 | 14109 ft | 376 kts | 160° |
| 2026-05-07 00:36 | 40.20257 | 2.50684 | 13566 ft | 379 kts | 139° |
| 2026-05-07 00:37 | 40.18608 | 2.53354 | 13105 ft | 377 kts | 121° |
| 2026-05-07 00:37 | 40.17309 | 2.56286 | 12881 ft | 367 kts | 121° |
| 2026-05-07 00:37 | 40.16043 | 2.59130 | 12711 ft | 356 kts | 121° |
| 2026-05-07 00:37 | 40.14820 | 2.61889 | 12541 ft | 345 kts | 121° |
| 2026-05-07 00:38 | 40.13637 | 2.64564 | 12378 ft | 336 kts | 121° |
| 2026-05-07 00:38 | 40.12498 | 2.67136 | 12223 ft | 326 kts | 121° |
| 2026-05-07 00:38 | 40.11379 | 2.69662 | 12071 ft | 317 kts | 121° |
| 2026-05-07 00:38 | 40.10294 | 2.72114 | 11938 ft | 307 kts | 121° |
| 2026-05-07 00:39 | 40.09238 | 2.74494 | 11737 ft | 300 kts | 121° |
| 2026-05-07 00:39 | 40.08192 | 2.76853 | 11403 ft | 299 kts | 121° |
| 2026-05-07 00:39 | 40.07155 | 2.79187 | 11118 ft | 296 kts | 121° |
| 2026-05-07 00:39 | 40.06472 | 2.80725 | 10926 ft | 294 kts | 121° |
| 2026-05-07 00:40 | 40.05451 | 2.83021 | 10622 ft | 292 kts | 121° |
| 2026-05-07 00:40 | 40.04434 | 2.85307 | 10332 ft | 289 kts | 121° |
| 2026-05-07 00:40 | 40.03436 | 2.87548 | 10181 ft | 281 kts | 121° |
| 2026-05-07 00:40 | 40.02466 | 2.89725 | 10016 ft | 274 kts | 121° |
| 2026-05-07 00:41 | 40.01513 | 2.91863 | 9731 ft | 272 kts | 121° |
| 2026-05-07 00:41 | 40.00563 | 2.93992 | 9419 ft | 270 kts | 121° |
| 2026-05-07 00:41 | 39.99622 | 2.96098 | 9128 ft | 268 kts | 121° |
| 2026-05-07 00:41 | 39.98687 | 2.98192 | 8842 ft | 265 kts | 121° |
| 2026-05-07 00:42 | 39.97763 | 3.00258 | 8564 ft | 263 kts | 121° |
| 2026-05-07 00:42 | 39.96847 | 3.02306 | 8303 ft | 260 kts | 121° |
| 2026-05-07 00:42 | 39.95929 | 3.04356 | 8029 ft | 264 kts | 121° |
| 2026-05-07 00:42 | 39.94994 | 3.06444 | 7744 ft | 268 kts | 121° |
| 2026-05-07 00:43 | 39.93924 | 3.08433 | 7414 ft | 269 kts | 137° |
| 2026-05-07 00:43 | 39.92326 | 3.09645 | 7091 ft | 267 kts | 165° |
| 2026-05-07 00:43 | 39.90500 | 3.09798 | 6823 ft | 264 kts | 189° |
| 2026-05-07 00:43 | 39.88763 | 3.09074 | 6559 ft | 261 kts | 201° |
| 2026-05-07 00:44 | 39.87083 | 3.08189 | 6280 ft | 260 kts | 201° |
| 2026-05-07 00:44 | 39.85422 | 3.07293 | 5978 ft | 258 kts | 202° |
| 2026-05-07 00:44 | 39.83771 | 3.06390 | 5689 ft | 256 kts | 202° |
| 2026-05-07 00:44 | 39.82132 | 3.05485 | 5410 ft | 255 kts | 202° |
| 2026-05-07 00:45 | 39.80511 | 3.04583 | 5136 ft | 253 kts | 202° |
| 2026-05-07 00:45 | 39.78917 | 3.03694 | 4871 ft | 251 kts | 202° |
| 2026-05-07 00:45 | 39.77323 | 3.02803 | 4648 ft | 247 kts | 202° |
| 2026-05-07 00:45 | 39.75771 | 3.01936 | 4532 ft | 238 kts | 202° |
| 2026-05-07 00:46 | 39.74276 | 3.01100 | 4420 ft | 228 kts | 202° |
| 2026-05-07 00:46 | 39.72868 | 3.00313 | 4337 ft | 213 kts | 202° |
| 2026-05-07 00:46 | 39.71543 | 2.99573 | 4190 ft | 202 kts | 202° |
| 2026-05-07 00:46 | 39.70290 | 2.98873 | 4031 ft | 191 kts | 202° |
| 2026-05-07 00:47 | 39.69109 | 2.98213 | 3887 ft | 181 kts | 202° |
| 2026-05-07 00:47 | 39.67949 | 2.97566 | 3731 ft | 181 kts | 202° |
| 2026-05-07 00:47 | 39.66791 | 2.96919 | 3603 ft | 181 kts | 202° |
| 2026-05-07 00:47 | 39.65633 | 2.96270 | 3498 ft | 181 kts | 203° |
| 2026-05-07 00:48 | 39.64680 | 2.95236 | 3280 ft | 180 kts | 233° |
| 2026-05-07 00:48 | 39.63949 | 2.93905 | 3123 ft | 182 kts | 234° |
| 2026-05-07 00:48 | 39.63258 | 2.92536 | 2894 ft | 181 kts | 237° |
| 2026-05-07 00:48 | 39.62596 | 2.91143 | 2666 ft | 181 kts | 237° |
| 2026-05-07 00:49 | 39.61941 | 2.89751 | 2426 ft | 178 kts | 237° |
| 2026-05-07 00:49 | 39.61326 | 2.88442 | 2183 ft | 163 kts | 237° |
| 2026-05-07 00:49 | 39.60742 | 2.87202 | 1968 ft | 160 kts | 237° |
| 2026-05-07 00:49 | 39.60164 | 2.85974 | 1772 ft | 159 kts | 238° |
| 2026-05-07 00:50 | 39.59596 | 2.84768 | 1556 ft | 159 kts | 237° |
| 2026-05-07 00:50 | 39.59097 | 2.83709 | 1374 ft | 158 kts | 238° |
| 2026-05-07 00:50 | 39.58528 | 2.82499 | 1163 ft | 157 kts | 238° |
| 2026-05-07 00:50 | 39.57962 | 2.81300 | 956 ft | 156 kts | 238° |
| 2026-05-07 00:51 | 39.57403 | 2.80112 | 743 ft | 152 kts | 239° |
| 2026-05-07 00:51 | 39.56854 | 2.78947 | 545 ft | 150 kts | 239° |
| 2026-05-07 00:51 | 39.56311 | 2.77797 | 352 ft | 149 kts | 239° |
| 2026-05-07 00:51 | 39.55769 | 2.76644 | 119 ft | 149 kts | 239° |
| 2026-05-07 00:52 | 39.55241 | 2.75524 | 27 ft | 136 kts | 237° |
| 2026-05-07 00:52 | 39.54846 | 2.74690 | 29 ft | 75 kts | 238° |
| 2026-05-07 00:52 | 39.54618 | 2.74219 | 33 ft | 37 kts | 238° |
| 2026-05-07 00:52 | 39.54552 | 2.73986 | 33 ft | 24 kts | 261° |
| 2026-05-07 00:53 | 39.54550 | 2.73825 | 33 ft | 7 kts | 271° |
| 2026-05-07 00:53 | 39.54551 | 2.73750 | 34 ft | 9 kts | 270° |
| 2026-05-07 00:53 | 39.54549 | 2.73659 | 34 ft | 11 kts | 269° |
| 2026-05-07 00:53 | 39.54523 | 2.73564 | 35 ft | 13 kts | 240° |
| 2026-05-07 00:54 | 39.54472 | 2.73459 | 36 ft | 15 kts | 238° |
| 2026-05-07 00:54 | 39.54416 | 2.73338 | 36 ft | 17 kts | 239° |
| 2026-05-07 00:54 | 39.54388 | 2.73227 | 37 ft | 14 kts | 299° |
| 2026-05-07 00:54 | 39.54451 | 2.73234 | 36 ft | 9 kts | 22° |
| 2026-05-07 00:55 | 39.54485 | 2.73236 | 36 ft | 1 kts | 349° |
| 2026-05-07 00:55 | 39.54498 | 2.73231 | 36 ft | 1 kts | 344° |
| 2026-05-07 00:55 | 39.54503 | 2.73229 | 36 ft | 0 kts | 344° |